sensor_id;sensor_type;location;lat;lon;timestamp;pressure;altitude;pressure_sealevel;temperature;humidity
26043;BME280;13818;52.156;5.382;2023-05-03T00:02:07;102691.94;;;7.49;100.00
26043;BME280;13818;52.156;5.382;2023-05-03T00:04:34;102685.75;;;7.52;100.00
26043;BME280;13818;52.156;5.382;2023-05-03T00:07:01;102685.75;;;7.52;100.00
26043;BME280;13818;52.156;5.382;2023-05-03T00:09:29;102682.25;;;7.44;100.00
26043;BME280;13818;52.156;5.382;2023-05-03T00:11:56;102688.47;;;7.32;100.00
26043;BME280;13818;52.156;5.382;2023-05-03T00:14:24;102685.84;;;7.23;100.00
26043;BME280;13818;52.156;5.382;2023-05-03T00:16:51;102681.44;;;7.14;100.00
26043;BME280;13818;52.156;5.382;2023-05-03T00:19:18;102682.31;;;7.14;100.00
26043;BME280;13818;52.156;5.382;2023-05-03T00:21:45;102684.97;;;7.16;100.00
26043;BME280;13818;52.156;5.382;2023-05-03T00:24:12;102689.41;;;7.14;100.00
26043;BME280;13818;52.156;5.382;2023-05-03T00:26:40;102689.41;;;7.20;100.00
26043;BME280;13818;52.156;5.382;2023-05-03T00:29:07;102693.81;;;7.21;100.00
26043;BME280;13818;52.156;5.382;2023-05-03T00:31:33;102696.47;;;7.23;100.00
26043;BME280;13818;52.156;5.382;2023-05-03T00:34:00;102697.34;;;7.20;100.00
26043;BME280;13818;52.156;5.382;2023-05-03T00:36:27;102697.34;;;7.22;100.00
26043;BME280;13818;52.156;5.382;2023-05-03T00:38:54;102699.13;;;7.23;100.00
26043;BME280;13818;52.156;5.382;2023-05-03T00:41:22;102692.03;;;7.19;100.00
26043;BME280;13818;52.156;5.382;2023-05-03T00:43:51;102685.88;;;7.16;100.00
26043;BME280;13818;52.156;5.382;2023-05-03T00:46:18;102696.47;;;7.07;100.00
26043;BME280;13818;52.156;5.382;2023-05-03T00:48:46;102692.94;;;7.07;100.00
26043;BME280;13818;52.156;5.382;2023-05-03T00:51:14;102692.06;;;7.05;100.00
26043;BME280;13818;52.156;5.382;2023-05-03T00:53:42;102689.44;;;6.98;100.00
26043;BME280;13818;52.156;5.382;2023-05-03T00:56:09;102694.72;;;6.97;100.00
26043;BME280;13818;52.156;5.382;2023-05-03T00:58:36;102687.66;;;7.00;100.00
26043;BME280;13818;52.156;5.382;2023-05-03T01:01:06;102686.78;;;7.00;100.00
26043;BME280;13818;52.156;5.382;2023-05-03T01:03:33;102682.38;;;6.91;100.00
26043;BME280;13818;52.156;5.382;2023-05-03T01:06:08;102691.19;;;6.93;100.00
26043;BME280;13818;52.156;5.382;2023-05-03T01:08:41;102690.34;;;6.90;100.00
26043;BME280;13818;52.156;5.382;2023-05-03T01:11:15;102691.22;;;6.84;100.00
26043;BME280;13818;52.156;5.382;2023-05-03T01:13:51;102691.22;;;6.76;100.00
26043;BME280;13818;52.156;5.382;2023-05-03T01:16:26;102688.59;;;6.68;100.00
26043;BME280;13818;52.156;5.382;2023-05-03T01:18:57;102692.09;;;6.69;100.00
26043;BME280;13818;52.156;5.382;2023-05-03T01:21:28;102690.34;;;6.73;100.00
26043;BME280;13818;52.156;5.382;2023-05-03T01:24:02;102696.53;;;6.65;100.00
26043;BME280;13818;52.156;5.382;2023-05-03T01:26:31;102688.56;;;6.58;100.00
26043;BME280;13818;52.156;5.382;2023-05-03T01:28:59;102693.88;;;6.56;100.00
26043;BME280;13818;52.156;5.382;2023-05-03T01:31:28;102692.13;;;6.60;100.00
26043;BME280;13818;52.156;5.382;2023-05-03T01:34:09;102700.94;;;6.57;100.00
26043;BME280;13818;52.156;5.382;2023-05-03T01:36:42;102693.00;;;6.56;100.00
26043;BME280;13818;52.156;5.382;2023-05-03T01:39:13;102688.56;;;6.56;100.00
26043;BME280;13818;52.156;5.382;2023-05-03T01:41:44;102696.53;;;6.61;100.00
26043;BME280;13818;52.156;5.382;2023-05-03T01:44:12;102687.69;;;6.51;100.00
26043;BME280;13818;52.156;5.382;2023-05-03T01:46:43;102685.06;;;6.56;100.00
26043;BME280;13818;52.156;5.382;2023-05-03T01:49:10;102682.38;;;6.54;100.00
26043;BME280;13818;52.156;5.382;2023-05-03T01:51:37;102682.41;;;6.51;100.00
26043;BME280;13818;52.156;5.382;2023-05-03T01:54:05;102678.88;;;6.44;100.00
26043;BME280;13818;52.156;5.382;2023-05-03T01:56:34;102687.69;;;6.42;100.00
26043;BME280;13818;52.156;5.382;2023-05-03T01:59:03;102685.94;;;6.41;100.00
26043;BME280;13818;52.156;5.382;2023-05-03T02:01:30;102678.88;;;6.44;100.00
26043;BME280;13818;52.156;5.382;2023-05-03T02:03:56;102677.09;;;6.39;100.00
26043;BME280;13818;52.156;5.382;2023-05-03T02:06:23;102686.81;;;6.38;100.00
26043;BME280;13818;52.156;5.382;2023-05-03T02:08:53;102682.41;;;6.35;100.00
26043;BME280;13818;52.156;5.382;2023-05-03T02:11:19;102677.06;;;6.26;100.00
26043;BME280;13818;52.156;5.382;2023-05-03T02:13:47;102670.00;;;6.25;100.00
26043;BME280;13818;52.156;5.382;2023-05-03T02:16:16;102669.13;;;6.15;100.00
26043;BME280;13818;52.156;5.382;2023-05-03T02:18:43;102660.28;;;6.07;100.00
26043;BME280;13818;52.156;5.382;2023-05-03T02:21:11;102658.50;;;6.06;100.00
26043;BME280;13818;52.156;5.382;2023-05-03T02:23:38;102662.03;;;6.11;100.00
26043;BME280;13818;52.156;5.382;2023-05-03T02:26:06;102655.00;;;6.04;100.00
26043;BME280;13818;52.156;5.382;2023-05-03T02:28:32;102660.22;;;5.93;100.00
26043;BME280;13818;52.156;5.382;2023-05-03T02:30:59;102651.38;;;5.88;100.00
26043;BME280;13818;52.156;5.382;2023-05-03T02:33:27;102644.28;;;5.82;100.00
26043;BME280;13818;52.156;5.382;2023-05-03T02:35:54;102645.19;;;5.77;100.00
26043;BME280;13818;52.156;5.382;2023-05-03T02:38:22;102644.28;;;5.73;100.00
26043;BME280;13818;52.156;5.382;2023-05-03T02:40:49;102645.13;;;5.66;100.00
26043;BME280;13818;52.156;5.382;2023-05-03T02:43:16;102646.91;;;5.62;100.00
26043;BME280;13818;52.156;5.382;2023-05-03T02:45:43;102632.78;;;5.59;100.00
26043;BME280;13818;52.156;5.382;2023-05-03T02:48:09;102635.38;;;5.45;100.00
26043;BME280;13818;52.156;5.382;2023-05-03T02:50:39;102633.56;;;5.37;100.00
26043;BME280;13818;52.156;5.382;2023-05-03T02:53:05;102628.28;;;5.36;100.00
26043;BME280;13818;52.156;5.382;2023-05-03T02:55:32;102636.19;;;5.33;100.00
26043;BME280;13818;52.156;5.382;2023-05-03T02:57:59;102641.41;;;5.17;100.00
26043;BME280;13818;52.156;5.382;2023-05-03T03:00:27;102638.78;;;5.19;100.00
26043;BME280;13818;52.156;5.382;2023-05-03T03:02:54;102648.50;;;5.29;100.00
26043;BME280;13818;52.156;5.382;2023-05-03T03:05:21;102631.78;;;5.32;100.00
26043;BME280;13818;52.156;5.382;2023-05-03T03:07:49;102639.75;;;5.36;100.00
26043;BME280;13818;52.156;5.382;2023-05-03T03:10:16;102647.69;;;5.46;100.00
26043;BME280;13818;52.156;5.382;2023-05-03T03:12:43;102645.06;;;5.43;100.00
26043;BME280;13818;52.156;5.382;2023-05-03T03:15:10;102649.47;;;5.47;100.00
26043;BME280;13818;52.156;5.382;2023-05-03T03:17:37;102660.06;;;5.44;100.00
26043;BME280;13818;52.156;5.382;2023-05-03T03:20:05;102650.34;;;5.46;100.00
26043;BME280;13818;52.156;5.382;2023-05-03T03:22:32;102664.41;;;5.37;100.00
26043;BME280;13818;52.156;5.382;2023-05-03T03:25:00;102664.38;;;5.25;100.00
26043;BME280;13818;52.156;5.382;2023-05-03T03:27:27;102651.16;;;5.29;100.00
26043;BME280;13818;52.156;5.382;2023-05-03T03:29:53;102658.19;;;5.24;100.00
26043;BME280;13818;52.156;5.382;2023-05-03T03:32:20;102656.34;;;5.09;100.00
26043;BME280;13818;52.156;5.382;2023-05-03T03:34:47;102664.34;;;5.20;100.00
26043;BME280;13818;52.156;5.382;2023-05-03T03:37:14;102658.19;;;5.22;100.00
26043;BME280;13818;52.156;5.382;2023-05-03T03:39:41;102658.19;;;5.19;100.00
26043;BME280;13818;52.156;5.382;2023-05-03T03:42:10;102658.16;;;5.13;100.00
26043;BME280;13818;52.156;5.382;2023-05-03T03:44:37;102656.38;;;5.12;100.00
26043;BME280;13818;52.156;5.382;2023-05-03T03:47:03;102665.16;;;5.13;100.00
26043;BME280;13818;52.156;5.382;2023-05-03T03:49:30;102674.00;;;5.15;100.00
26043;BME280;13818;52.156;5.382;2023-05-03T03:51:57;102674.03;;;5.22;100.00
26043;BME280;13818;52.156;5.382;2023-05-03T03:54:24;102668.78;;;5.27;100.00
26043;BME280;13818;52.156;5.382;2023-05-03T03:56:50;102673.25;;;5.36;100.00
26043;BME280;13818;52.156;5.382;2023-05-03T03:59:18;102663.56;;;5.43;100.00
26043;BME280;13818;52.156;5.382;2023-05-03T04:01:45;102677.69;;;5.46;100.00
26043;BME280;13818;52.156;5.382;2023-05-03T04:04:12;102672.44;;;5.54;100.00
26043;BME280;13818;52.156;5.382;2023-05-03T04:06:39;102674.22;;;5.55;100.00
26043;BME280;13818;52.156;5.382;2023-05-03T04:09:09;102675.97;;;5.58;100.00
26043;BME280;13818;52.156;5.382;2023-05-03T04:11:36;102667.16;;;5.63;100.00
26043;BME280;13818;52.156;5.382;2023-05-03T04:14:03;102663.66;;;5.63;100.00
26043;BME280;13818;52.156;5.382;2023-05-03T04:16:32;102658.38;;;5.70;100.00
26043;BME280;13818;52.156;5.382;2023-05-03T04:18:59;102676.03;;;5.73;100.00
26043;BME280;13818;52.156;5.382;2023-05-03T04:21:26;102683.13;;;5.88;100.00
26043;BME280;13818;52.156;5.382;2023-05-03T04:23:53;102682.28;;;5.97;100.00
26043;BME280;13818;52.156;5.382;2023-05-03T04:26:20;102686.78;;;6.21;100.00
26043;BME280;13818;52.156;5.382;2023-05-03T04:28:48;102698.28;;;6.39;100.00
26043;BME280;13818;52.156;5.382;2023-05-03T04:31:16;102699.16;;;6.72;100.00
26043;BME280;13818;52.156;5.382;2023-05-03T04:33:45;102698.22;;;7.19;100.00
26043;BME280;13818;52.156;5.382;2023-05-03T04:36:12;102702.50;;;7.65;100.00
26043;BME280;13818;52.156;5.382;2023-05-03T04:38:40;102713.97;;;7.75;100.00
26043;BME280;13818;52.156;5.382;2023-05-03T04:41:07;102714.47;;;8.42;100.00
26043;BME280;13818;52.156;5.382;2023-05-03T04:43:34;102714.47;;;8.40;100.00
26043;BME280;13818;52.156;5.382;2023-05-03T04:46:01;102715.06;;;8.84;100.00
26043;BME280;13818;52.156;5.382;2023-05-03T04:48:29;102720.06;;;9.15;100.00
26043;BME280;13818;52.156;5.382;2023-05-03T04:50:57;102725.97;;;10.15;100.00
26043;BME280;13818;52.156;5.382;2023-05-03T04:53:25;102715.69;;;9.86;100.00
26043;BME280;13818;52.156;5.382;2023-05-03T04:55:52;102723.81;;;9.80;100.00
26043;BME280;13818;52.156;5.382;2023-05-03T04:58:19;102723.16;;;10.28;100.00
26043;BME280;13818;52.156;5.382;2023-05-03T05:00:46;102726.53;;;10.40;100.00
26043;BME280;13818;52.156;5.382;2023-05-03T05:03:13;102726.16;;;10.64;100.00
26043;BME280;13818;52.156;5.382;2023-05-03T05:05:40;102726.31;;;11.07;100.00
26043;BME280;13818;52.156;5.382;2023-05-03T05:08:08;102722.81;;;11.04;100.00
26043;BME280;13818;52.156;5.382;2023-05-03T05:10:36;102724.69;;;11.46;100.00
26043;BME280;13818;52.156;5.382;2023-05-03T05:13:04;102718.38;;;11.92;97.52
26043;BME280;13818;52.156;5.382;2023-05-03T05:15:31;102721.06;;;12.33;92.75
26043;BME280;13818;52.156;5.382;2023-05-03T05:17:58;102738.38;;;13.25;90.01
26043;BME280;13818;52.156;5.382;2023-05-03T05:20:25;102739.97;;;13.32;86.44
26043;BME280;13818;52.156;5.382;2023-05-03T05:22:52;102732.78;;;12.65;85.62
26043;BME280;13818;52.156;5.382;2023-05-03T05:25:20;102728.84;;;12.80;86.21
26043;BME280;13818;52.156;5.382;2023-05-03T05:27:47;102742.13;;;12.47;85.47
26043;BME280;13818;52.156;5.382;2023-05-03T05:30:14;102735.94;;;13.50;84.56
26043;BME280;13818;52.156;5.382;2023-05-03T05:32:41;102745.28;;;14.26;79.20
26043;BME280;13818;52.156;5.382;2023-05-03T05:35:09;102750.50;;;13.71;78.82
26043;BME280;13818;52.156;5.382;2023-05-03T05:37:35;102742.41;;;14.32;77.74
26043;BME280;13818;52.156;5.382;2023-05-03T05:40:03;102745.72;;;14.41;73.50
26043;BME280;13818;52.156;5.382;2023-05-03T05:42:34;102745.47;;;14.20;73.99
26043;BME280;13818;52.156;5.382;2023-05-03T05:45:01;102751.22;;;12.77;76.33
26043;BME280;13818;52.156;5.382;2023-05-03T05:47:28;102745.91;;;13.10;77.14
26043;BME280;13818;52.156;5.382;2023-05-03T05:49:55;102749.81;;;13.64;75.90
26043;BME280;13818;52.156;5.382;2023-05-03T05:52:22;102741.34;;;14.10;73.26
26043;BME280;13818;52.156;5.382;2023-05-03T05:54:49;102743.31;;;14.03;73.63
26043;BME280;13818;52.156;5.382;2023-05-03T05:57:16;102746.69;;;14.38;73.20
26043;BME280;13818;52.156;5.382;2023-05-03T05:59:44;102754.56;;;15.00;70.08
26043;BME280;13818;52.156;5.382;2023-05-03T06:02:14;102747.06;;;14.27;70.83
26043;BME280;13818;52.156;5.382;2023-05-03T06:04:47;102753.34;;;14.26;71.47
26043;BME280;13818;52.156;5.382;2023-05-03T06:07:14;102752.69;;;14.18;71.94
26043;BME280;13818;52.156;5.382;2023-05-03T06:09:43;102760.59;;;13.93;71.27
26043;BME280;13818;52.156;5.382;2023-05-03T06:12:10;102758.63;;;15.11;69.22
26043;BME280;13818;52.156;5.382;2023-05-03T06:14:37;102762.63;;;15.00;67.54
26043;BME280;13818;52.156;5.382;2023-05-03T06:17:06;102760.84;;;14.43;67.15
26043;BME280;13818;52.156;5.382;2023-05-03T06:19:32;102757.44;;;14.10;69.61
26043;BME280;13818;52.156;5.382;2023-05-03T06:21:59;102768.19;;;14.67;69.03
26043;BME280;13818;52.156;5.382;2023-05-03T06:24:26;102758.06;;;14.46;68.10
26043;BME280;13818;52.156;5.382;2023-05-03T06:26:55;102748.81;;;16.08;64.16
26043;BME280;13818;52.156;5.382;2023-05-03T06:29:25;102746.19;;;16.53;62.10
26043;BME280;13818;52.156;5.382;2023-05-03T06:31:52;102745.72;;;14.41;64.18
26043;BME280;13818;52.156;5.382;2023-05-03T06:34:20;102745.56;;;15.51;65.08
26043;BME280;13818;52.156;5.382;2023-05-03T06:36:47;102745.25;;;14.56;64.19
26043;BME280;13818;52.156;5.382;2023-05-03T06:39:15;102738.72;;;14.63;66.27
26043;BME280;13818;52.156;5.382;2023-05-03T06:41:42;102740.22;;;15.51;64.39
26043;BME280;13818;52.156;5.382;2023-05-03T06:44:09;102750.09;;;16.22;61.15
26043;BME280;13818;52.156;5.382;2023-05-03T06:46:37;102743.91;;;16.64;59.54
26043;BME280;13818;52.156;5.382;2023-05-03T06:49:04;102753.34;;;15.84;60.18
26043;BME280;13818;52.156;5.382;2023-05-03T06:51:32;102739.28;;;15.27;61.77
26043;BME280;13818;52.156;5.382;2023-05-03T06:54:00;102751.72;;;16.26;60.42
26043;BME280;13818;52.156;5.382;2023-05-03T06:56:31;102743.63;;;15.80;60.98
26043;BME280;13818;52.156;5.382;2023-05-03T06:58:58;102740.59;;;15.89;59.90
26043;BME280;13818;52.156;5.382;2023-05-03T07:01:25;102735.94;;;15.20;62.04
26043;BME280;13818;52.156;5.382;2023-05-03T07:03:52;102730.03;;;16.31;59.45
26043;BME280;13818;52.156;5.382;2023-05-03T07:06:18;102739.72;;;15.15;62.56
26043;BME280;13818;52.156;5.382;2023-05-03T07:08:49;102738.50;;;15.49;61.49
26043;BME280;13818;52.156;5.382;2023-05-03T07:11:16;102725.75;;;13.93;65.88
26043;BME280;13818;52.156;5.382;2023-05-03T07:13:44;102727.59;;;15.28;62.15
26043;BME280;13818;52.156;5.382;2023-05-03T07:16:16;102724.94;;;15.52;61.82
26043;BME280;13818;52.156;5.382;2023-05-03T07:18:43;102726.44;;;16.52;59.38
26043;BME280;13818;52.156;5.382;2023-05-03T07:21:11;102718.94;;;16.38;57.92
26043;BME280;13818;52.156;5.382;2023-05-03T07:23:37;102722.16;;;15.78;58.85
26043;BME280;13818;52.156;5.382;2023-05-03T07:26:06;102720.22;;;15.09;59.29
26043;BME280;13818;52.156;5.382;2023-05-03T07:28:33;102711.72;;;16.61;58.69
26043;BME280;13818;52.156;5.382;2023-05-03T07:30:59;102708.34;;;14.63;60.97
26043;BME280;13818;52.156;5.382;2023-05-03T07:33:27;102701.09;;;15.91;60.34
26043;BME280;13818;52.156;5.382;2023-05-03T07:35:54;102699.66;;;14.55;61.55
26043;BME280;13818;52.156;5.382;2023-05-03T07:38:22;102701.16;;;14.65;61.50
26043;BME280;13818;52.156;5.382;2023-05-03T07:40:48;102699.63;;;14.83;62.77
26043;BME280;13818;52.156;5.382;2023-05-03T07:43:17;102687.53;;;15.22;62.10
26043;BME280;13818;52.156;5.382;2023-05-03T07:45:47;102695.59;;;16.39;58.58
26043;BME280;13818;52.156;5.382;2023-05-03T07:48:14;102695.47;;;16.85;57.06
26043;BME280;13818;52.156;5.382;2023-05-03T07:50:41;102684.88;;;16.59;57.46
26043;BME280;13818;52.156;5.382;2023-05-03T07:53:10;102689.19;;;16.64;56.30
26043;BME280;13818;52.156;5.382;2023-05-03T07:55:37;102690.16;;;16.83;57.03
26043;BME280;13818;52.156;5.382;2023-05-03T07:58:04;102686.88;;;15.88;58.71
26043;BME280;13818;52.156;5.382;2023-05-03T08:00:33;102679.09;;;16.04;58.09
26043;BME280;13818;52.156;5.382;2023-05-03T08:03:00;102683.03;;;13.88;62.14
26043;BME280;13818;52.156;5.382;2023-05-03T08:05:30;102692.94;;;13.55;64.55
26043;BME280;13818;52.156;5.382;2023-05-03T08:07:56;102685.94;;;12.83;68.02
26043;BME280;13818;52.156;5.382;2023-05-03T08:10:23;102689.47;;;13.51;69.18
26043;BME280;13818;52.156;5.382;2023-05-03T08:12:50;102675.16;;;14.10;68.53
26043;BME280;13818;52.156;5.382;2023-05-03T08:15:17;102672.66;;;14.06;65.68
26043;BME280;13818;52.156;5.382;2023-05-03T08:17:47;102695.50;;;13.58;65.75
26043;BME280;13818;52.156;5.382;2023-05-03T08:20:14;102682.69;;;13.69;65.03
26043;BME280;13818;52.156;5.382;2023-05-03T08:22:41;102684.34;;;13.10;67.11
26043;BME280;13818;52.156;5.382;2023-05-03T08:25:10;102664.81;;;13.98;66.12
26043;BME280;13818;52.156;5.382;2023-05-03T08:27:37;102673.16;;;13.59;66.82
26043;BME280;13818;52.156;5.382;2023-05-03T08:30:05;102653.06;;;14.30;65.19
26043;BME280;13818;52.156;5.382;2023-05-03T08:32:32;102655.78;;;14.02;65.83
26043;BME280;13818;52.156;5.382;2023-05-03T08:35:00;102665.44;;;13.16;67.75
26043;BME280;13818;52.156;5.382;2023-05-03T08:37:37;102645.38;;;13.31;67.34
26043;BME280;13818;52.156;5.382;2023-05-03T08:40:07;102645.84;;;12.47;71.24
26043;BME280;13818;52.156;5.382;2023-05-03T08:42:38;102658.63;;;12.70;73.00
26043;BME280;13818;52.156;5.382;2023-05-03T08:45:05;102655.84;;;13.41;70.27
26043;BME280;13818;52.156;5.382;2023-05-03T08:47:38;102671.50;;;13.85;68.65
26043;BME280;13818;52.156;5.382;2023-05-03T08:50:09;102662.06;;;14.01;67.20
26043;BME280;13818;52.156;5.382;2023-05-03T08:52:38;102668.81;;;14.41;65.02
26043;BME280;13818;52.156;5.382;2023-05-03T08:55:08;102666.00;;;14.44;65.11
26043;BME280;13818;52.156;5.382;2023-05-03T08:57:35;102676.84;;;13.23;67.38
26043;BME280;13818;52.156;5.382;2023-05-03T09:00:03;102667.94;;;13.84;66.06
26043;BME280;13818;52.156;5.382;2023-05-03T09:02:34;102673.44;;;14.36;64.15
26043;BME280;13818;52.156;5.382;2023-05-03T09:05:32;102680.63;;;13.47;67.03
26043;BME280;13818;52.156;5.382;2023-05-03T09:08:01;102694.41;;;13.00;67.31
26043;BME280;13818;52.156;5.382;2023-05-03T09:10:28;102673.41;;;13.81;66.69
26043;BME280;13818;52.156;5.382;2023-05-03T09:12:57;102678.09;;;13.73;66.06
26043;BME280;13818;52.156;5.382;2023-05-03T09:15:25;102668.97;;;12.84;69.00
26043;BME280;13818;52.156;5.382;2023-05-03T09:18:12;102675.16;;;13.82;67.82
26043;BME280;13818;52.156;5.382;2023-05-03T09:20:43;102681.88;;;12.68;70.27
26043;BME280;13818;52.156;5.382;2023-05-03T09:23:15;102676.97;;;13.50;68.84
26043;BME280;13818;52.156;5.382;2023-05-03T09:25:44;102674.03;;;14.18;66.08
26043;BME280;13818;52.156;5.382;2023-05-03T09:28:12;102679.44;;;14.71;64.83
26043;BME280;13818;52.156;5.382;2023-05-03T09:30:39;102683.47;;;13.73;66.40
26043;BME280;13818;52.156;5.382;2023-05-03T09:33:06;102686.28;;;13.03;68.03
26043;BME280;13818;52.156;5.382;2023-05-03T09:35:33;102678.66;;;13.84;67.20
26043;BME280;13818;52.156;5.382;2023-05-03T09:38:03;102699.16;;;13.55;67.46
26043;BME280;13818;52.156;5.382;2023-05-03T09:40:30;102693.06;;;13.50;68.73
26043;BME280;13818;52.156;5.382;2023-05-03T09:43:08;102686.63;;;13.87;67.61
26043;BME280;13818;52.156;5.382;2023-05-03T09:45:35;102675.31;;;14.34;66.01
26043;BME280;13818;52.156;5.382;2023-05-03T09:48:04;102673.59;;;14.03;66.25
26043;BME280;13818;52.156;5.382;2023-05-03T09:50:31;102678.53;;;13.89;67.89
26043;BME280;13818;52.156;5.382;2023-05-03T09:53:01;102673.72;;;14.28;66.69
26043;BME280;13818;52.156;5.382;2023-05-03T09:55:32;102685.91;;;13.80;67.41
26043;BME280;13818;52.156;5.382;2023-05-03T09:58:01;102680.31;;;12.94;70.11
26043;BME280;13818;52.156;5.382;2023-05-03T10:00:34;102677.22;;;13.09;69.97
26043;BME280;13818;52.156;5.382;2023-05-03T10:03:05;102669.88;;;13.17;70.24
26043;BME280;13818;52.156;5.382;2023-05-03T10:05:36;102664.38;;;13.54;68.48
26043;BME280;13818;52.156;5.382;2023-05-03T10:08:06;102668.59;;;12.98;69.20
26043;BME280;13818;52.156;5.382;2023-05-03T10:10:39;102660.72;;;13.25;68.97
26043;BME280;13818;52.156;5.382;2023-05-03T10:13:10;102655.97;;;13.03;69.52
26043;BME280;13818;52.156;5.382;2023-05-03T10:15:40;102655.28;;;13.28;68.93
26043;BME280;13818;52.156;5.382;2023-05-03T10:18:09;102664.31;;;13.24;69.28
26043;BME280;13818;52.156;5.382;2023-05-03T10:20:40;102656.09;;;12.98;71.01
26043;BME280;13818;52.156;5.382;2023-05-03T10:23:10;102642.72;;;13.30;70.03
26043;BME280;13818;52.156;5.382;2023-05-03T10:25:39;102646.50;;;13.23;70.54
26043;BME280;13818;52.156;5.382;2023-05-03T10:28:07;102634.00;;;13.55;70.42
26043;BME280;13818;52.156;5.382;2023-05-03T10:30:36;102637.13;;;13.69;69.00
26043;BME280;13818;52.156;5.382;2023-05-03T10:33:29;102635.16;;;13.46;70.15
26043;BME280;13818;52.156;5.382;2023-05-03T10:35:58;102643.00;;;13.52;68.81
26043;BME280;13818;52.156;5.382;2023-05-03T10:38:27;102631.81;;;13.36;69.09
26043;BME280;13818;52.156;5.382;2023-05-03T10:40:56;102631.50;;;13.48;70.17
26043;BME280;13818;52.156;5.382;2023-05-03T10:43:42;102639.84;;;13.06;70.57
26043;BME280;13818;52.156;5.382;2023-05-03T10:46:41;102633.94;;;13.25;70.52
26043;BME280;13818;52.156;5.382;2023-05-03T10:49:19;102654.09;;;13.07;70.53
26043;BME280;13818;52.156;5.382;2023-05-03T10:51:46;102641.31;;;12.85;71.41
26043;BME280;13818;52.156;5.382;2023-05-03T10:54:13;102643.00;;;13.21;71.87
26043;BME280;13818;52.156;5.382;2023-05-03T10:56:55;102627.44;;;13.33;69.25
26043;BME280;13818;52.156;5.382;2023-05-03T10:59:23;102626.25;;;13.12;68.56
26043;BME280;13818;52.156;5.382;2023-05-03T11:01:52;102634.81;;;12.94;70.80
26043;BME280;13818;52.156;5.382;2023-05-03T11:04:31;102621.50;;;13.22;70.82
26043;BME280;13818;52.156;5.382;2023-05-03T11:07:00;102611.22;;;13.40;71.55
26043;BME280;13818;52.156;5.382;2023-05-03T11:09:31;102608.53;;;13.40;70.35
26043;BME280;13818;52.156;5.382;2023-05-03T11:12:03;102608.47;;;13.43;70.68
26043;BME280;13818;52.156;5.382;2023-05-03T11:14:30;102612.88;;;13.44;70.24
26043;BME280;13818;52.156;5.382;2023-05-03T11:16:57;102592.97;;;13.53;71.29
26043;BME280;13818;52.156;5.382;2023-05-03T11:19:24;102600.00;;;13.57;69.21
26043;BME280;13818;52.156;5.382;2023-05-03T11:21:51;102592.66;;;13.63;70.20
26043;BME280;13818;52.156;5.382;2023-05-03T11:24:18;102590.75;;;13.67;70.20
26043;BME280;13818;52.156;5.382;2023-05-03T11:26:46;102587.03;;;13.71;70.08
26043;BME280;13818;52.156;5.382;2023-05-03T11:29:16;102588.03;;;13.97;70.32
26043;BME280;13818;52.156;5.382;2023-05-03T11:31:45;102587.00;;;14.01;68.71
26043;BME280;13818;52.156;5.382;2023-05-03T11:34:12;102587.47;;;13.57;70.14
26043;BME280;13818;52.156;5.382;2023-05-03T11:36:40;102589.41;;;13.82;69.65
26043;BME280;13818;52.156;5.382;2023-05-03T11:39:11;102588.88;;;13.69;68.43
26043;BME280;13818;52.156;5.382;2023-05-03T11:41:38;102592.34;;;13.73;68.87
26043;BME280;13818;52.156;5.382;2023-05-03T11:44:06;102576.47;;;13.66;69.85
26043;BME280;13818;52.156;5.382;2023-05-03T11:46:37;102579.19;;;13.93;70.05
26043;BME280;13818;52.156;5.382;2023-05-03T11:49:05;102574.38;;;14.05;69.39
26043;BME280;13818;52.156;5.382;2023-05-03T11:51:32;102584.38;;;13.98;68.45
26043;BME280;13818;52.156;5.382;2023-05-03T11:54:00;102561.56;;;13.86;69.06
26043;BME280;13818;52.156;5.382;2023-05-03T11:56:28;102567.81;;;14.13;68.08
26043;BME280;13818;52.156;5.382;2023-05-03T11:58:56;102567.34;;;14.27;68.63
26043;BME280;13818;52.156;5.382;2023-05-03T12:01:26;102563.56;;;14.33;68.25
26043;BME280;13818;52.156;5.382;2023-05-03T12:03:57;102564.56;;;14.56;65.79
26043;BME280;13818;52.156;5.382;2023-05-03T12:06:26;102565.41;;;14.83;64.85
26043;BME280;13818;52.156;5.382;2023-05-03T12:08:54;102570.53;;;14.64;65.65
26043;BME280;13818;52.156;5.382;2023-05-03T12:11:23;102561.88;;;14.04;66.21
26043;BME280;13818;52.156;5.382;2023-05-03T12:13:57;102545.72;;;13.78;67.09
26043;BME280;13818;52.156;5.382;2023-05-03T12:16:27;102540.69;;;13.96;68.75
26043;BME280;13818;52.156;5.382;2023-05-03T12:18:57;102541.28;;;14.31;67.28
26043;BME280;13818;52.156;5.382;2023-05-03T12:21:43;102538.22;;;14.42;65.96
26043;BME280;13818;52.156;5.382;2023-05-03T12:24:11;102534.44;;;14.22;65.32
26043;BME280;13818;52.156;5.382;2023-05-03T12:26:41;102531.44;;;14.57;64.57
26043;BME280;13818;52.156;5.382;2023-05-03T12:29:08;102529.19;;;14.70;64.25
26043;BME280;13818;52.156;5.382;2023-05-03T12:31:34;102530.06;;;14.45;64.62
26043;BME280;13818;52.156;5.382;2023-05-03T12:34:03;102525.63;;;14.44;65.66
26043;BME280;13818;52.156;5.382;2023-05-03T12:36:29;102532.34;;;14.56;66.12
26043;BME280;13818;52.156;5.382;2023-05-03T12:38:56;102528.72;;;14.06;67.91
26043;BME280;13818;52.156;5.382;2023-05-03T12:41:26;102518.47;;;13.92;69.42
26043;BME280;13818;52.156;5.382;2023-05-03T12:43:57;102510.22;;;13.98;65.41
26043;BME280;13818;52.156;5.382;2023-05-03T12:46:24;102511.78;;;14.04;64.72
26043;BME280;13818;52.156;5.382;2023-05-03T12:48:51;102520.25;;;13.92;66.24
26043;BME280;13818;52.156;5.382;2023-05-03T12:51:19;102498.41;;;14.04;67.94
26043;BME280;13818;52.156;5.382;2023-05-03T12:53:46;102490.91;;;14.39;67.04
26043;BME280;13818;52.156;5.382;2023-05-03T12:56:14;102488.16;;;14.41;67.91
26043;BME280;13818;52.156;5.382;2023-05-03T12:58:41;102492.44;;;14.46;66.97